Columbus, OH (43266)

12:58 AM EST on December 21, 2014 (GMT -0500)
Central Clintonville, Columbus, Ohio | Change Station
CLOSE
Current Station
Personal Weather Station
Location: Columbus, OH
Elevation: 791 ft
Nearby Weather Stations

Elev 791 ft 40.04 °N, 83.02 °W | Updated 28 seconds ago

Overcast
Overcast
29.8 °F
Feels Like 30 °F
N
0.0
Wind Variable Wind from North
Gusts 0.7 mph

Today
High -- | Low -- °F
--% Chance of Precip.
Yesterday
High -- | Low -- °F
Precip. -- in
7:50 AM 5:09 PM
Waning Crescent, 1% visible
Pressure 30.31 in
Visibility 7.0 miles
Clouds Overcast 2300 ft
Windchill 30 °F
Dew Point 24 °F
Humidity 77%
Rainfall -999.00 in
Snow Depth Not available.
UV 0 out of 12
Pollen .10 out of 12
Air Quality Not available.
Flu Activity Not available.
METAR KCMH 210551Z 00000KT 7SM OVC023 M01/M04 A3028 RMK AO2 SLP264 60000 T10111044 11006 21011 55001

More Conditions Fewer Conditions

Pressure 30.31 in
Visibility 7.0 miles
Clouds Overcast 2300 ft
Windchill 30 °F
Dew Point 24 °F
Humidity 77%
Rainfall -999.00 in
Snow Depth Not available.
UV 0 out of 12
Pollen .10 out of 12
Air Quality Not available.
Flu Activity Not available.
METAR KCMH 210551Z 00000KT 7SM OVC023 M01/M04 A3028 RMK AO2 SLP264 60000 T10111044 11006 21011 55001

More Conditions Fewer Conditions

10-Day Weather Forecast

Almanac

Astronomy

Dec. 21, 2014 Rise Set
Actual Time
Civil Twilight
Nautical Twilight
Astronomical Twilight
Moon
Length of Visible Light
Length of Day
Tomorrow will be .
, % of the Moon is Illuminated

Today's Extremes

State Highs State Lows

Community

WunderPhotos

Upload Photos

1,779,359 photos uploaded!

WunderBlogs® & News

Nearby

Air Quality

  Air Quality AQ Index Pollutant
Not available.

Snow Depth

Station Depth Elevation

Earthquake Activity

City Distance Mag. Time & Date
Minimum magnitude displayed is 2.5.

Coastal Water Temperatures

Place Temperature

Nearby Weather Stations